This is the latest recevied weather packets stored in our database for station/object K0SNA. If no packets are shown the sender has not sent any weather packets the latest 1 day(s).
| Time | Temp. | Humidity | Pressure | Rain* | Wind** | Luminosity | Snow |
|---|---|---|---|---|---|---|---|
| 1778026116 | 8.89° C | 40% | 1011.2 hPa | 0 mm | 2.68 m/s, 341° | 21 W/m² | - |
| 1778025814 | 8.89° C | 42% | 1011.2 hPa | 0 mm | 0.89 m/s, 237° | 24 W/m² | - |
| 1778025510 | 8.89° C | 40% | 1011.1 hPa | 0 mm | 1.79 m/s, 346° | 29 W/m² | - |
| 1778025208 | 9.44° C | 40% | 1010.9 hPa | 0 mm | 1.34 m/s, 313° | 32 W/m² | - |
| 1778024904 | 9.44° C | 40% | 1011 hPa | 0 mm | 1.79 m/s, 338° | 39 W/m² | - |
| 1778024602 | 9.44° C | 41% | 1010.9 hPa | 0 mm | 2.24 m/s, 356° | 48 W/m² | - |
| 1778024299 | 9.44° C | 40% | 1011 hPa | 0 mm | 2.24 m/s, 295° | 46 W/m² | - |
| 1778023997 | 9.44° C | 40% | 1011.1 hPa | 0 mm | 1.79 m/s, 295° | 65 W/m² | - |
| 1778023694 | 9.44° C | 39% | 1011 hPa | 0 mm | 0.89 m/s, 306° | 77 W/m² | - |
| 1778023392 | 9.44° C | 40% | 1011 hPa | 0 mm | 1.79 m/s, 345° | 63 W/m² | - |
| 1778023088 | 9.44° C | 39% | 1011 hPa | 0 mm | 2.68 m/s, 328° | 76 W/m² | - |
| 1778022787 | 10° C | 39% | 1011 hPa | 0 mm | 2.68 m/s, 305° | 99 W/m² | - |
| 1778022484 | 10.56° C | 39% | 1011 hPa | 0 mm | 1.79 m/s, 291° | 101 W/m² | - |
| 1778022181 | 10° C | 40% | 1011 hPa | 0 mm | 1.79 m/s, 281° | 89 W/m² | - |
| 1778021877 | 10° C | 40% | 1010.8 hPa | 0 mm | 0.89 m/s, 216° | 91 W/m² | - |
| 1778021575 | 10.56° C | 38% | 1011.1 hPa | 0 mm | 1.34 m/s, 254° | 113 W/m² | - |
| 1778021269 | 10° C | 40% | 1011 hPa | 0 mm | 0.89 m/s, 239° | 106 W/m² | - |
| 1778020968 | 9.44° C | 41% | 1010.8 hPa | 0 mm | 1.34 m/s, 243° | 148 W/m² | - |
| 1778020665 | 9.44° C | 41% | 1011.1 hPa | 0 mm | 1.34 m/s, 342° | 121 W/m² | - |
| 1778020361 | 9.44° C | 40% | 1011 hPa | 0 mm | 1.34 m/s, 249° | 150 W/m² | - |
| 1778020057 | 10° C | 39% | 1011.1 hPa | 0 mm | 1.34 m/s, 335° | 157 W/m² | - |
| 1778019753 | 9.44° C | 41% | 1010.7 hPa | 0 mm | 1.34 m/s, 265° | 224 W/m² | - |
| 1778019451 | 9.44° C | 41% | 1011 hPa | 0 mm | 1.79 m/s, 339° | 123 W/m² | - |
| 1778019147 | 9.44° C | 40% | 1011 hPa | 0 mm | 2.24 m/s, 257° | 168 W/m² | - |
| 1778018844 | 10° C | 41% | 1010.9 hPa | 0 mm | 1.34 m/s, 230° | 171 W/m² | - |
* Rain latest hour (hover to see other rain measurements)
** Current wind speed in m/s (hover to see current wind gust speed)